createdAt,value
2023-02-07T00:00:12.938Z,0.00
2023-02-07T00:01:12.965Z,0.00
2023-02-07T00:02:13.010Z,0.00
2023-02-07T00:03:12.980Z,0.00
2023-02-07T00:04:12.892Z,0.00
2023-02-07T00:05:12.879Z,0.00
2023-02-07T00:06:12.861Z,0.00
2023-02-07T00:07:12.854Z,0.00
2023-02-07T00:08:12.843Z,0.00
2023-02-07T00:09:12.831Z,0.00
2023-02-07T00:10:12.800Z,0.00
2023-02-07T00:11:12.802Z,0.00
2023-02-07T00:12:12.778Z,0.00
2023-02-07T00:13:12.770Z,0.00
2023-02-07T00:14:12.802Z,0.00
2023-02-07T00:15:12.751Z,0.00
2023-02-07T00:16:12.794Z,0.00
2023-02-07T00:17:12.743Z,0.00
2023-02-07T00:18:12.700Z,0.00
2023-02-07T00:19:12.688Z,0.00
2023-02-07T00:20:12.694Z,0.00
2023-02-07T00:21:12.671Z,0.00
2023-02-07T00:22:12.651Z,0.00
2023-02-07T00:23:12.636Z,0.00
2023-02-07T00:24:12.618Z,0.00
2023-02-07T00:25:12.607Z,0.00
2023-02-07T00:26:12.600Z,0.00
2023-02-07T00:27:12.585Z,0.00
2023-02-07T00:28:12.618Z,0.00
2023-02-07T00:29:12.555Z,0.00
2023-02-07T00:30:12.545Z,0.00
2023-02-07T00:31:12.742Z,0.00
2023-02-07T00:32:12.520Z,0.00
2023-02-07T00:33:12.533Z,0.00
2023-02-07T00:34:12.489Z,0.00
2023-02-07T00:35:12.483Z,0.00
2023-02-07T00:36:12.457Z,0.00
2023-02-07T00:37:12.457Z,0.00
2023-02-07T00:38:12.442Z,0.00
2023-02-07T00:39:12.427Z,0.00
2023-02-07T00:40:12.412Z,0.00
2023-02-07T00:41:12.401Z,0.00
2023-02-07T00:42:12.382Z,0.00
2023-02-07T00:43:18.886Z,0.00
2023-02-07T00:44:13.393Z,0.00
2023-02-07T00:45:12.351Z,0.00
2023-02-07T00:46:12.383Z,0.00
2023-02-07T00:47:12.320Z,0.00
2023-02-07T00:48:12.303Z,0.00
2023-02-07T00:49:12.334Z,0.00
2023-02-07T00:50:12.273Z,0.00
2023-02-07T00:51:12.264Z,0.00
2023-02-07T00:52:12.251Z,0.00
2023-02-07T00:53:12.235Z,0.00
2023-02-07T00:54:12.241Z,0.00
2023-02-07T00:55:12.263Z,0.00
2023-02-07T00:56:12.205Z,0.00
2023-02-07T00:57:12.189Z,0.00
2023-02-07T00:58:12.174Z,0.00
2023-02-07T00:59:12.161Z,0.00
2023-02-07T01:00:12.145Z,0.00
2023-02-07T01:01:12.144Z,0.00
2023-02-07T01:02:12.123Z,0.00
2023-02-07T01:03:12.110Z,0.00
2023-02-07T01:04:12.096Z,0.00
2023-02-07T01:05:12.117Z,0.00
2023-02-07T01:06:12.077Z,0.00
2023-02-07T01:07:12.052Z,0.00
2023-02-07T01:08:12.040Z,0.00
2023-02-07T01:09:12.038Z,0.00
2023-02-07T01:10:12.032Z,0.00
2023-02-07T01:11:12.005Z,0.00
2023-02-07T01:12:12.000Z,0.00
2023-02-07T01:13:11.984Z,0.00
2023-02-07T01:14:11.959Z,0.00
2023-02-07T01:15:11.953Z,0.00
2023-02-07T01:16:11.988Z,0.00
2023-02-07T01:17:11.927Z,0.00
2023-02-07T01:18:11.913Z,0.00
2023-02-07T01:19:11.913Z,0.00
2023-02-07T01:20:11.885Z,0.00
2023-02-07T01:21:11.904Z,0.00
2023-02-07T01:22:11.857Z,0.00
2023-02-07T01:23:11.847Z,0.00
2023-02-07T01:24:11.834Z,0.00
2023-02-07T01:25:11.816Z,0.00
2023-02-07T01:26:11.807Z,0.00
2023-02-07T01:27:12.044Z,0.00
2023-02-07T01:28:11.843Z,0.00
2023-02-07T01:29:11.798Z,0.00
2023-02-07T01:30:11.753Z,0.00
2023-02-07T01:31:11.864Z,0.00
2023-02-07T01:32:11.734Z,0.00
2023-02-07T01:33:11.727Z,0.00
2023-02-07T01:34:11.696Z,0.00
2023-02-07T01:35:11.683Z,0.00
2023-02-07T01:36:11.670Z,0.00
2023-02-07T01:37:11.683Z,0.00
2023-02-07T01:38:11.650Z,0.00
2023-02-07T01:39:11.640Z,0.00
2023-02-07T01:40:11.632Z,0.00
2023-02-07T01:41:11.605Z,0.00
2023-02-07T01:42:11.592Z,0.00
2023-02-07T01:43:11.580Z,0.00
2023-02-07T01:44:11.566Z,0.00
2023-02-07T01:45:11.552Z,0.00
2023-02-07T01:46:11.553Z,0.00
2023-02-07T01:47:11.516Z,0.00
2023-02-07T01:48:11.504Z,0.00
2023-02-07T01:49:11.754Z,0.00
2023-02-07T01:50:11.475Z,0.00
2023-02-07T01:51:11.467Z,0.00
2023-02-07T01:52:11.552Z,0.00
2023-02-07T01:53:11.466Z,0.00
2023-02-07T01:54:11.425Z,0.00
2023-02-07T01:55:11.411Z,0.00
2023-02-07T01:56:17.657Z,0.00
2023-02-07T01:57:11.386Z,0.00
2023-02-07T01:58:11.365Z,0.00
2023-02-07T01:59:11.355Z,0.00
2023-02-07T02:00:11.345Z,0.00
2023-02-07T02:01:11.356Z,0.00
2023-02-07T02:02:11.318Z,0.00
2023-02-07T02:03:11.307Z,0.00
2023-02-07T02:04:11.290Z,0.00
2023-02-07T02:05:11.278Z,0.00
2023-02-07T02:06:11.267Z,0.00
2023-02-07T02:07:11.250Z,0.00
2023-02-07T02:08:11.238Z,0.00
2023-02-07T02:09:11.260Z,0.00
2023-02-07T02:10:11.205Z,0.00
2023-02-07T02:11:11.344Z,0.00
2023-02-07T02:12:11.189Z,0.00
2023-02-07T02:13:11.162Z,0.00
2023-02-07T02:14:11.152Z,0.00
2023-02-07T02:15:11.139Z,0.00
2023-02-07T02:16:11.528Z,0.00
2023-02-07T02:17:11.117Z,0.00
2023-02-07T02:18:11.105Z,0.00
2023-02-07T02:19:11.090Z,0.00
2023-02-07T02:20:11.075Z,0.00
2023-02-07T02:21:11.065Z,0.00
2023-02-07T02:22:11.048Z,0.00
2023-02-07T02:23:11.388Z,0.00
2023-02-07T02:24:11.023Z,0.00
2023-02-07T02:25:11.046Z,0.00
2023-02-07T02:26:11.002Z,0.00
2023-02-07T02:27:10.984Z,0.00
2023-02-07T02:28:10.994Z,0.00
2023-02-07T02:29:10.953Z,0.00
2023-02-07T02:30:10.945Z,0.00
2023-02-07T02:31:11.031Z,0.00
2023-02-07T02:32:10.915Z,0.00
2023-02-07T02:33:10.907Z,0.00
2023-02-07T02:34:10.890Z,0.00
2023-02-07T02:35:10.874Z,0.00
2023-02-07T02:36:10.869Z,0.00
2023-02-07T02:37:10.854Z,0.00
2023-02-07T02:38:10.835Z,0.00
2023-02-07T02:39:10.833Z,0.00
2023-02-07T02:40:10.806Z,0.00
2023-02-07T02:41:10.819Z,0.00
2023-02-07T02:42:10.791Z,0.00
2023-02-07T02:43:10.777Z,0.00
2023-02-07T02:44:10.754Z,0.00
2023-02-07T02:45:11.154Z,0.00
2023-02-07T02:46:10.834Z,0.00
2023-02-07T02:47:10.720Z,0.00
2023-02-07T02:48:10.713Z,0.00
2023-02-07T02:49:10.694Z,0.00
2023-02-07T02:50:10.669Z,0.00
2023-02-07T02:51:10.658Z,0.00
2023-02-07T02:52:10.687Z,0.00
2023-02-07T02:53:10.636Z,0.00
2023-02-07T02:54:10.621Z,0.00
2023-02-07T02:55:10.605Z,0.00
2023-02-07T02:56:10.592Z,0.00
2023-02-07T02:57:10.617Z,0.00
2023-02-07T02:58:10.574Z,0.00
2023-02-07T02:59:10.560Z,0.00
2023-02-07T03:00:10.542Z,0.00
2023-02-07T03:01:10.536Z,0.00
2023-02-07T03:02:10.560Z,0.00
2023-02-07T03:03:10.759Z,0.00
2023-02-07T03:04:10.485Z,0.00
2023-02-07T03:05:10.538Z,0.00
2023-02-07T03:06:10.462Z,0.00
2023-02-07T03:07:10.445Z,0.00
2023-02-07T03:08:10.887Z,0.00
2023-02-07T03:09:10.424Z,0.00
2023-02-07T03:10:10.408Z,0.00
2023-02-07T03:11:10.404Z,0.00
2023-02-07T03:12:10.381Z,0.00
2023-02-07T03:13:10.402Z,0.00
2023-02-07T03:14:10.354Z,0.00
2023-02-07T03:15:10.335Z,0.00
2023-02-07T03:16:10.367Z,0.00
2023-02-07T03:17:10.410Z,0.00
2023-02-07T03:18:10.302Z,0.00
2023-02-07T03:19:10.293Z,0.00
2023-02-07T03:20:10.275Z,0.00
2023-02-07T03:21:10.253Z,0.00
2023-02-07T03:22:10.237Z,0.00
2023-02-07T03:23:10.227Z,0.00
2023-02-07T03:24:10.209Z,0.00
2023-02-07T03:25:10.203Z,0.00
2023-02-07T03:26:10.187Z,0.00
2023-02-07T03:27:10.176Z,0.00
2023-02-07T03:28:10.196Z,0.00
2023-02-07T03:29:10.173Z,0.00
2023-02-07T03:30:10.144Z,0.00
2023-02-07T03:31:10.161Z,0.00
2023-02-07T03:32:10.100Z,0.00
2023-02-07T03:33:10.098Z,0.00
2023-02-07T03:34:10.078Z,0.00
2023-02-07T03:35:10.065Z,0.00
2023-02-07T03:36:10.044Z,0.00
2023-02-07T03:37:10.036Z,0.00
2023-02-07T03:38:10.022Z,0.00
2023-02-07T03:39:10.009Z,0.00
2023-02-07T03:40:10.008Z,0.00
2023-02-07T03:41:09.977Z,0.00
2023-02-07T03:42:09.973Z,0.00
2023-02-07T03:43:09.952Z,0.00
2023-02-07T03:44:09.947Z,0.00
2023-02-07T03:45:09.995Z,0.00
2023-02-07T03:46:09.915Z,0.00
2023-02-07T03:47:09.896Z,0.00
2023-02-07T03:48:09.891Z,0.00
2023-02-07T03:49:09.868Z,0.00
2023-02-07T03:50:09.876Z,0.00
2023-02-07T03:51:09.840Z,0.00
2023-02-07T03:52:09.834Z,0.00
2023-02-07T03:53:09.819Z,0.00
2023-02-07T03:54:09.799Z,0.00
2023-02-07T03:55:09.794Z,0.00
2023-02-07T03:56:09.782Z,0.00
2023-02-07T03:57:09.764Z,0.00
2023-02-07T03:58:09.762Z,0.00
2023-02-07T03:59:09.737Z,0.00
2023-02-07T04:00:09.922Z,0.00
2023-02-07T04:01:09.829Z,0.00
2023-02-07T04:02:10.090Z,0.00
2023-02-07T04:03:09.686Z,0.00
2023-02-07T04:04:09.671Z,0.00
2023-02-07T04:05:09.661Z,0.00
2023-02-07T04:06:09.647Z,0.00
2023-02-07T04:07:09.631Z,0.00
2023-02-07T04:08:09.622Z,0.00
2023-02-07T04:09:11.633Z,0.00
2023-02-07T04:10:09.585Z,0.00
2023-02-07T04:11:09.580Z,0.00
2023-02-07T04:12:09.563Z,0.00
2023-02-07T04:13:09.856Z,0.00
2023-02-07T04:14:09.530Z,0.00
2023-02-07T04:15:09.558Z,0.00
2023-02-07T04:16:09.612Z,0.00
2023-02-07T04:17:09.570Z,0.00
2023-02-07T04:18:09.486Z,0.00
2023-02-07T04:19:09.620Z,0.00
2023-02-07T04:20:09.471Z,0.00
2023-02-07T04:21:09.439Z,0.00
2023-02-07T04:22:09.432Z,0.00
2023-02-07T04:23:09.411Z,0.00
2023-02-07T04:24:09.407Z,0.00
2023-02-07T04:25:09.388Z,0.00
2023-02-07T04:26:09.371Z,0.00
2023-02-07T04:27:09.363Z,0.00
2023-02-07T04:28:09.428Z,0.00
2023-02-07T04:29:09.346Z,0.00
2023-02-07T04:30:09.317Z,0.00
2023-02-07T04:31:09.306Z,0.00
2023-02-07T04:32:09.301Z,0.00
2023-02-07T04:33:09.297Z,0.00
2023-02-07T04:34:09.262Z,0.00
2023-02-07T04:35:09.263Z,0.00
2023-02-07T04:36:09.238Z,0.00
2023-02-07T04:37:09.224Z,0.00
2023-02-07T04:38:09.208Z,0.00
2023-02-07T04:39:09.186Z,0.00
2023-02-07T04:40:09.196Z,0.00
2023-02-07T04:41:09.168Z,0.00
2023-02-07T04:42:09.155Z,0.00
2023-02-07T04:43:09.139Z,0.00
2023-02-07T04:44:09.138Z,0.00
2023-02-07T04:45:09.131Z,0.00
2023-02-07T04:46:09.170Z,0.00
2023-02-07T04:47:09.087Z,0.00
2023-02-07T04:48:09.071Z,0.00
2023-02-07T04:49:09.091Z,0.00
2023-02-07T04:50:09.039Z,0.00
2023-02-07T04:51:09.031Z,0.00
2023-02-07T04:52:09.016Z,0.00
2023-02-07T04:53:09.008Z,0.00
2023-02-07T04:54:08.984Z,0.00
2023-02-07T04:55:08.976Z,0.00
2023-02-07T04:56:08.958Z,0.00
2023-02-07T04:57:09.003Z,0.00
2023-02-07T04:58:08.955Z,0.00
2023-02-07T04:59:08.919Z,0.00
2023-02-07T05:00:08.908Z,0.00
2023-02-07T05:01:08.973Z,0.00
2023-02-07T05:02:08.891Z,0.00
2023-02-07T05:03:08.870Z,0.00
2023-02-07T05:04:09.225Z,0.00
2023-02-07T05:05:09.083Z,0.00
2023-02-07T05:06:08.830Z,0.00
2023-02-07T05:07:08.963Z,0.00
2023-02-07T05:08:08.807Z,0.00
2023-02-07T05:09:08.787Z,0.00
2023-02-07T05:10:08.778Z,0.00
2023-02-07T05:11:08.768Z,0.00
2023-02-07T05:12:08.755Z,0.00
2023-02-07T05:13:08.741Z,0.00
2023-02-07T05:14:08.742Z,0.00
2023-02-07T05:15:08.713Z,0.00
2023-02-07T05:16:08.707Z,0.00
2023-02-07T05:17:08.686Z,0.00
2023-02-07T05:18:08.672Z,0.00
2023-02-07T05:19:08.767Z,0.00
2023-02-07T05:20:08.653Z,0.00
2023-02-07T05:21:08.662Z,0.00
2023-02-07T05:22:08.627Z,0.00
2023-02-07T05:23:08.615Z,0.00
2023-02-07T05:24:08.600Z,0.00
2023-02-07T05:25:08.581Z,0.00
2023-02-07T05:26:08.587Z,0.00
2023-02-07T05:27:08.561Z,0.00
2023-02-07T05:28:08.591Z,0.00
2023-02-07T05:29:08.528Z,0.00
2023-02-07T05:30:08.525Z,0.00
2023-02-07T05:31:08.593Z,0.00
2023-02-07T05:32:08.492Z,0.00
2023-02-07T05:33:08.481Z,0.00
2023-02-07T05:34:08.474Z,0.00
2023-02-07T05:35:08.447Z,0.00
2023-02-07T05:36:08.439Z,0.00
2023-02-07T05:37:08.448Z,0.00
2023-02-07T05:38:08.411Z,0.00
2023-02-07T05:39:08.390Z,0.00
2023-02-07T05:40:08.382Z,0.00
2023-02-07T05:41:08.371Z,0.00
2023-02-07T05:42:08.349Z,0.00
2023-02-07T05:43:08.338Z,0.00
2023-02-07T05:44:08.331Z,0.00
2023-02-07T05:45:08.307Z,0.00
2023-02-07T05:46:08.349Z,0.00
2023-02-07T05:47:08.284Z,0.00
2023-02-07T05:48:08.280Z,0.00
2023-02-07T05:49:08.254Z,0.00
2023-02-07T05:50:08.252Z,0.00
2023-02-07T05:51:08.276Z,0.00
2023-02-07T05:52:08.216Z,0.00
2023-02-07T05:53:08.255Z,0.00
2023-02-07T05:54:08.185Z,0.00
2023-02-07T05:55:08.170Z,0.00
2023-02-07T05:56:08.307Z,0.00
2023-02-07T05:57:08.139Z,0.00
2023-02-07T05:58:08.143Z,0.00
2023-02-07T05:59:08.214Z,0.00
2023-02-07T06:00:08.104Z,0.00
2023-02-07T06:01:08.087Z,0.00
2023-02-07T06:02:08.104Z,0.00
2023-02-07T06:03:08.064Z,0.00
2023-02-07T06:04:08.076Z,0.00
2023-02-07T06:05:08.039Z,0.00
2023-02-07T06:06:08.025Z,0.00
2023-02-07T06:07:08.012Z,0.00
2023-02-07T06:08:08.005Z,0.00
2023-02-07T06:09:08.024Z,0.00
2023-02-07T06:10:07.971Z,0.00
2023-02-07T06:11:07.951Z,0.00
2023-02-07T06:12:07.942Z,0.00
2023-02-07T06:13:07.923Z,0.00
2023-02-07T06:14:07.918Z,0.00
2023-02-07T06:15:07.900Z,0.00
2023-02-07T06:16:07.924Z,0.00
2023-02-07T06:17:07.882Z,0.00
2023-02-07T06:18:07.856Z,0.00
2023-02-07T06:19:07.846Z,0.00
2023-02-07T06:20:07.830Z,0.00
2023-02-07T06:21:07.827Z,0.00
2023-02-07T06:22:07.805Z,0.00
2023-02-07T06:23:07.798Z,0.00
2023-02-07T06:24:07.794Z,0.00
2023-02-07T06:25:09.367Z,0.00
2023-02-07T06:26:07.758Z,0.00
2023-02-07T06:27:07.750Z,0.00
2023-02-07T06:28:07.785Z,0.00
2023-02-07T06:29:07.726Z,0.00
2023-02-07T06:30:07.708Z,0.00
2023-02-07T06:31:07.811Z,0.00
2023-02-07T06:32:07.675Z,0.00
2023-02-07T06:33:07.672Z,0.00
2023-02-07T06:34:07.661Z,0.00
2023-02-07T06:35:07.650Z,0.00
2023-02-07T06:36:07.634Z,0.00
2023-02-07T06:37:07.612Z,5.62
2023-02-07T06:38:07.603Z,5.62
2023-02-07T06:39:07.584Z,5.62
2023-02-07T06:40:07.581Z,5.62
2023-02-07T06:41:08.034Z,5.62
2023-02-07T06:42:07.553Z,5.62
2023-02-07T06:43:09.013Z,5.62
2023-02-07T06:44:07.524Z,5.62
2023-02-07T06:45:07.508Z,11.25
2023-02-07T06:46:07.816Z,11.25
2023-02-07T06:47:07.489Z,11.25
2023-02-07T06:48:07.469Z,11.25
2023-02-07T06:49:07.456Z,11.25
2023-02-07T06:50:09.174Z,16.88
2023-02-07T06:51:07.752Z,16.88
2023-02-07T06:52:07.424Z,16.88
2023-02-07T06:53:07.416Z,16.88
2023-02-07T06:54:07.395Z,22.50
2023-02-07T06:55:07.383Z,22.50
2023-02-07T06:56:07.373Z,22.50
2023-02-07T06:57:07.379Z,22.50
2023-02-07T06:58:07.378Z,28.12
2023-02-07T06:59:07.329Z,33.75
2023-02-07T07:00:07.320Z,39.38
2023-02-07T07:01:07.298Z,45.00
2023-02-07T07:02:07.289Z,45.00
2023-02-07T07:03:07.285Z,45.00
2023-02-07T07:04:07.277Z,45.00
2023-02-07T07:05:07.257Z,45.00
2023-02-07T07:06:07.240Z,50.62
2023-02-07T07:07:07.226Z,50.62
2023-02-07T07:08:07.213Z,50.62
2023-02-07T07:09:07.200Z,56.25
2023-02-07T07:10:07.220Z,56.25
2023-02-07T07:11:07.375Z,56.25
2023-02-07T07:12:07.160Z,61.88
2023-02-07T07:13:07.188Z,61.88
2023-02-07T07:14:07.134Z,61.88
2023-02-07T07:15:07.134Z,61.88
2023-02-07T07:16:07.132Z,61.88
2023-02-07T07:17:07.193Z,61.88
2023-02-07T07:18:07.080Z,61.88
2023-02-07T07:19:07.069Z,67.50
2023-02-07T07:20:07.053Z,67.50
2023-02-07T07:21:07.040Z,67.50
2023-02-07T07:22:07.026Z,67.50
2023-02-07T07:23:07.009Z,73.12
2023-02-07T07:24:06.997Z,73.12
2023-02-07T07:25:06.985Z,73.12
2023-02-07T07:26:06.971Z,73.12
2023-02-07T07:27:06.958Z,73.12
2023-02-07T07:28:06.953Z,73.12
2023-02-07T07:29:06.951Z,78.75
2023-02-07T07:30:07.341Z,78.75
2023-02-07T07:31:07.170Z,84.38
2023-02-07T07:32:06.895Z,84.38
2023-02-07T07:33:06.879Z,84.38
2023-02-07T07:34:06.868Z,84.38
2023-02-07T07:35:06.856Z,84.38
2023-02-07T07:36:08.791Z,84.38
2023-02-07T07:37:06.821Z,84.38
2023-02-07T07:38:06.807Z,90.00
2023-02-07T07:39:06.791Z,90.00
2023-02-07T07:40:06.788Z,90.00
2023-02-07T07:41:06.763Z,90.00
2023-02-07T07:42:06.752Z,90.00
2023-02-07T07:43:06.743Z,90.00
2023-02-07T07:44:06.721Z,95.62
2023-02-07T07:45:06.730Z,95.62
2023-02-07T07:46:06.696Z,95.62
2023-02-07T07:47:06.685Z,95.62
2023-02-07T07:48:06.752Z,95.62
2023-02-07T07:49:06.656Z,101.25
2023-02-07T07:50:06.643Z,101.25
2023-02-07T07:51:06.627Z,101.25
2023-02-07T07:52:06.615Z,101.25
2023-02-07T07:53:06.598Z,101.25
2023-02-07T07:54:06.580Z,106.88
2023-02-07T07:55:06.580Z,106.88
2023-02-07T07:56:06.552Z,106.88
2023-02-07T07:57:06.547Z,106.88
2023-02-07T07:58:06.532Z,106.88
2023-02-07T07:59:12.148Z,106.88
2023-02-07T08:00:07.525Z,112.50
2023-02-07T08:01:06.606Z,112.50
2023-02-07T08:02:06.491Z,112.50
2023-02-07T08:03:06.465Z,112.50
2023-02-07T08:04:06.510Z,112.50
2023-02-07T08:05:06.441Z,118.12
2023-02-07T08:06:06.428Z,118.12
2023-02-07T08:07:06.430Z,118.12
2023-02-07T08:08:06.406Z,118.12
2023-02-07T08:09:06.386Z,118.12
2023-02-07T08:10:06.371Z,123.75
2023-02-07T08:11:06.364Z,123.75
2023-02-07T08:12:06.343Z,123.75
2023-02-07T08:13:06.333Z,123.75
2023-02-07T08:14:06.328Z,123.75
2023-02-07T08:15:06.302Z,129.38
2023-02-07T08:16:06.324Z,129.38
2023-02-07T08:17:06.314Z,129.38
2023-02-07T08:18:06.274Z,129.38
2023-02-07T08:19:06.251Z,135.00
2023-02-07T08:20:06.237Z,135.00
2023-02-07T08:21:06.232Z,140.62
2023-02-07T08:22:06.209Z,146.25
2023-02-07T08:23:06.212Z,151.88
2023-02-07T08:24:06.185Z,151.88
2023-02-07T08:25:06.177Z,163.12
2023-02-07T08:26:06.168Z,180.00
2023-02-07T08:27:06.145Z,191.25
2023-02-07T08:28:06.211Z,196.88
2023-02-07T08:29:06.123Z,219.38
2023-02-07T08:30:06.125Z,236.25
2023-02-07T08:31:06.127Z,236.25
2023-02-07T08:32:06.120Z,230.62
2023-02-07T08:33:06.091Z,219.38
2023-02-07T08:34:06.070Z,213.75
2023-02-07T08:35:06.104Z,219.38
2023-02-07T08:36:06.027Z,225.00
2023-02-07T08:37:06.024Z,236.25
2023-02-07T08:38:05.996Z,241.88
2023-02-07T08:39:06.801Z,253.12
2023-02-07T08:40:05.982Z,258.75
2023-02-07T08:41:05.970Z,264.38
2023-02-07T08:42:05.949Z,258.75
2023-02-07T08:43:05.933Z,270.00
2023-02-07T08:44:05.925Z,275.62
2023-02-07T08:45:05.952Z,275.62
2023-02-07T08:46:06.002Z,275.62
2023-02-07T08:47:05.875Z,275.62
2023-02-07T08:48:05.868Z,298.12
2023-02-07T08:49:05.874Z,376.88
2023-02-07T08:50:05.842Z,388.12
2023-02-07T08:51:05.933Z,545.62
2023-02-07T08:52:05.821Z,399.38
2023-02-07T08:53:05.998Z,343.12
2023-02-07T08:54:05.781Z,315.00
2023-02-07T08:55:05.782Z,303.75
2023-02-07T08:56:05.760Z,298.12
2023-02-07T08:57:05.749Z,303.75
2023-02-07T08:58:05.735Z,315.00
2023-02-07T08:59:05.720Z,309.38
2023-02-07T09:00:05.708Z,303.75
2023-02-07T09:01:05.786Z,303.75
2023-02-07T09:02:05.785Z,303.75
2023-02-07T09:03:05.671Z,303.75
2023-02-07T09:04:05.668Z,298.12
2023-02-07T09:05:05.661Z,298.12
2023-02-07T09:06:05.627Z,298.12
2023-02-07T09:07:05.616Z,298.12
2023-02-07T09:08:05.602Z,298.12
2023-02-07T09:09:05.586Z,298.12
2023-02-07T09:10:05.578Z,298.12
2023-02-07T09:11:09.037Z,298.12
2023-02-07T09:12:05.553Z,298.12
2023-02-07T09:13:05.543Z,298.12
2023-02-07T09:14:05.518Z,292.50
2023-02-07T09:15:05.512Z,292.50
2023-02-07T09:16:05.500Z,292.50
2023-02-07T09:17:05.485Z,292.50
2023-02-07T09:18:05.468Z,292.50
2023-02-07T09:19:05.459Z,292.50
2023-02-07T09:20:05.449Z,298.12
2023-02-07T09:21:05.460Z,292.50
2023-02-07T09:22:05.418Z,292.50
2023-02-07T09:23:05.412Z,292.50
2023-02-07T09:24:05.425Z,292.50
2023-02-07T09:25:05.382Z,298.12
2023-02-07T09:26:05.368Z,292.50
2023-02-07T09:27:05.360Z,292.50
2023-02-07T09:28:05.390Z,286.88
2023-02-07T09:29:05.330Z,286.88
2023-02-07T09:30:05.315Z,281.25
2023-02-07T09:31:05.591Z,275.62
2023-02-07T09:32:05.286Z,270.00
2023-02-07T09:33:05.283Z,264.38
2023-02-07T09:34:05.261Z,258.75
2023-02-07T09:35:05.260Z,275.62
2023-02-07T09:36:05.233Z,337.50
2023-02-07T09:37:05.253Z,320.62
2023-02-07T09:38:05.682Z,270.00
2023-02-07T09:39:05.195Z,258.75
2023-02-07T09:40:05.185Z,247.50
2023-02-07T09:41:05.522Z,247.50
2023-02-07T09:42:05.555Z,247.50
2023-02-07T09:43:05.339Z,236.25
2023-02-07T09:44:05.377Z,230.62
2023-02-07T09:45:05.277Z,230.62
2023-02-07T09:46:05.134Z,230.62
2023-02-07T09:47:05.098Z,219.38
2023-02-07T09:48:05.073Z,219.38
2023-02-07T09:49:05.069Z,219.38
2023-02-07T09:50:05.057Z,213.75
2023-02-07T09:51:05.044Z,213.75
2023-02-07T09:52:05.024Z,213.75
2023-02-07T09:53:05.035Z,213.75
2023-02-07T09:54:04.995Z,213.75
2023-02-07T09:55:04.994Z,213.75
2023-02-07T09:56:04.967Z,213.75
2023-02-07T09:57:04.959Z,219.38
2023-02-07T09:58:04.992Z,219.38
2023-02-07T09:59:04.933Z,219.38
2023-02-07T10:00:04.920Z,208.12
2023-02-07T10:01:04.927Z,208.12
2023-02-07T10:02:04.900Z,208.12
2023-02-07T10:03:04.899Z,202.50
2023-02-07T10:04:04.865Z,208.12
2023-02-07T10:05:04.850Z,202.50
2023-02-07T10:06:17.459Z,202.50
2023-02-07T10:07:05.850Z,202.50
2023-02-07T10:08:04.834Z,196.88
2023-02-07T10:09:04.823Z,196.88
2023-02-07T10:10:04.779Z,196.88
2023-02-07T10:11:04.869Z,196.88
2023-02-07T10:12:04.751Z,196.88
2023-02-07T10:13:04.744Z,196.88
2023-02-07T10:14:04.725Z,196.88
2023-02-07T10:15:04.714Z,196.88
2023-02-07T10:16:04.757Z,196.88
2023-02-07T10:17:04.693Z,202.50
2023-02-07T10:18:04.677Z,202.50
2023-02-07T10:19:04.681Z,202.50
2023-02-07T10:20:04.650Z,202.50
2023-02-07T10:21:04.641Z,196.88
2023-02-07T10:22:04.628Z,196.88
2023-02-07T10:23:04.650Z,196.88
2023-02-07T10:24:04.616Z,196.88
2023-02-07T10:25:04.609Z,196.88
2023-02-07T10:26:04.562Z,202.50
2023-02-07T10:27:04.574Z,202.50
2023-02-07T10:28:04.578Z,202.50
2023-02-07T10:29:04.530Z,202.50
2023-02-07T10:30:04.520Z,202.50
2023-02-07T10:31:04.615Z,202.50
2023-02-07T10:32:04.498Z,202.50
2023-02-07T10:33:04.514Z,208.12
2023-02-07T10:34:04.468Z,208.12
2023-02-07T10:35:04.451Z,213.75
2023-02-07T10:36:04.441Z,213.75
2023-02-07T10:37:04.426Z,213.75
2023-02-07T10:38:04.427Z,213.75
2023-02-07T10:39:09.439Z,225.00
2023-02-07T10:40:04.404Z,230.62
2023-02-07T10:41:04.397Z,230.62
2023-02-07T10:42:04.367Z,236.25
2023-02-07T10:43:04.438Z,236.25
2023-02-07T10:44:04.336Z,258.75
2023-02-07T10:45:04.326Z,275.62
2023-02-07T10:46:06.582Z,247.50
2023-02-07T10:47:04.313Z,258.75
2023-02-07T10:48:04.289Z,275.62
2023-02-07T10:49:04.267Z,270.00
2023-02-07T10:50:04.252Z,258.75
2023-02-07T10:51:04.274Z,258.75
2023-02-07T10:52:04.223Z,253.12
2023-02-07T10:53:04.219Z,253.12
2023-02-07T10:54:04.204Z,253.12
2023-02-07T10:55:04.214Z,253.12
2023-02-07T10:56:04.172Z,253.12
2023-02-07T10:57:04.190Z,258.75
2023-02-07T10:58:17.803Z,258.75
2023-02-07T10:59:05.163Z,258.75
2023-02-07T11:00:04.120Z,253.12
2023-02-07T11:01:04.112Z,253.12
2023-02-07T11:02:04.103Z,264.38
2023-02-07T11:03:04.217Z,258.75
2023-02-07T11:04:04.064Z,258.75
2023-02-07T11:05:04.061Z,258.75
2023-02-07T11:06:04.058Z,315.00
2023-02-07T11:07:04.047Z,669.38
2023-02-07T11:08:04.023Z,810.00
2023-02-07T11:09:04.003Z,956.25
2023-02-07T11:10:04.002Z,568.12
2023-02-07T11:11:03.975Z,528.75
2023-02-07T11:12:03.963Z,500.62
2023-02-07T11:13:03.988Z,511.88
2023-02-07T11:14:03.934Z,365.62
2023-02-07T11:15:03.923Z,286.88
2023-02-07T11:16:03.986Z,275.62
2023-02-07T11:17:03.894Z,270.00
2023-02-07T11:18:03.879Z,270.00
2023-02-07T11:19:03.870Z,258.75
2023-02-07T11:20:03.847Z,258.75
2023-02-07T11:21:03.836Z,264.38
2023-02-07T11:22:03.824Z,264.38
2023-02-07T11:23:03.832Z,326.25
2023-02-07T11:24:03.811Z,393.75
2023-02-07T11:25:03.800Z,348.75
2023-02-07T11:26:03.769Z,292.50
2023-02-07T11:27:03.759Z,331.88
2023-02-07T11:28:03.774Z,376.88
2023-02-07T11:29:03.753Z,388.12
2023-02-07T11:30:03.736Z,472.50
2023-02-07T11:31:03.789Z,483.75
2023-02-07T11:32:03.684Z,421.88
2023-02-07T11:33:03.679Z,421.88
2023-02-07T11:34:03.670Z,376.88
2023-02-07T11:35:03.765Z,461.25
2023-02-07T11:36:03.635Z,596.25
2023-02-07T11:37:03.621Z,483.75
2023-02-07T11:38:04.782Z,455.62
2023-02-07T11:39:03.596Z,641.25
2023-02-07T11:40:03.582Z,810.00
2023-02-07T11:41:03.568Z,933.75
2023-02-07T11:42:03.550Z,871.88
2023-02-07T11:43:03.580Z,697.50
2023-02-07T11:44:03.539Z,641.25
2023-02-07T11:45:03.551Z,483.75
2023-02-07T11:46:03.501Z,483.75
2023-02-07T11:47:03.491Z,601.88
2023-02-07T11:48:03.475Z,630.00
2023-02-07T11:49:03.470Z,466.88
2023-02-07T11:50:03.467Z,461.25
2023-02-07T11:51:03.447Z,523.12
2023-02-07T11:52:03.626Z,523.12
2023-02-07T11:53:03.416Z,770.62
2023-02-07T11:54:03.397Z,849.38
2023-02-07T11:55:03.381Z,939.38
2023-02-07T11:56:03.369Z,798.75
2023-02-07T11:57:03.356Z,450.00
2023-02-07T11:58:03.336Z,720.00
2023-02-07T11:59:03.327Z,883.12
2023-02-07T12:00:03.313Z,1046.25
2023-02-07T12:01:03.324Z,1316.25
2023-02-07T12:02:03.336Z,1378.12
2023-02-07T12:03:03.281Z,1327.50
2023-02-07T12:04:03.265Z,1411.88
2023-02-07T12:05:03.316Z,1417.50
2023-02-07T12:06:03.236Z,1423.12
2023-02-07T12:07:03.223Z,1434.38
2023-02-07T12:08:03.552Z,1428.75
2023-02-07T12:09:03.195Z,1417.50
2023-02-07T12:10:03.182Z,1411.88
2023-02-07T12:11:03.162Z,1428.75
2023-02-07T12:12:03.163Z,1473.75
2023-02-07T12:13:03.141Z,1518.75
2023-02-07T12:14:03.238Z,1468.12
2023-02-07T12:15:03.115Z,1434.38
2023-02-07T12:16:03.164Z,1473.75
2023-02-07T12:17:03.108Z,1462.50
2023-02-07T12:18:03.072Z,1440.00
2023-02-07T12:19:03.066Z,1423.12
2023-02-07T12:20:03.305Z,1400.62
2023-02-07T12:21:03.034Z,1333.12
2023-02-07T12:22:03.020Z,1254.38
2023-02-07T12:23:25.063Z,1198.12
2023-02-07T12:24:02.993Z,1153.12
2023-02-07T12:25:02.978Z,1125.00
2023-02-07T12:26:02.958Z,1119.38
2023-02-07T12:27:02.944Z,1136.25
2023-02-07T12:28:02.952Z,1158.75
2023-02-07T12:29:12.820Z,1170.00
2023-02-07T12:30:03.938Z,1170.00
2023-02-07T12:31:04.598Z,1158.75
2023-02-07T12:32:03.010Z,1164.38
2023-02-07T12:33:02.889Z,1186.88
2023-02-07T12:34:03.056Z,1203.75
2023-02-07T12:35:02.845Z,1198.12
2023-02-07T12:36:03.316Z,1237.50
2023-02-07T12:37:04.444Z,1321.88
2023-02-07T12:38:02.799Z,1361.25
2023-02-07T12:39:02.782Z,1338.75
2023-02-07T12:40:02.768Z,1344.38
2023-02-07T12:41:02.756Z,1327.50
2023-02-07T12:42:02.753Z,1282.50
2023-02-07T12:43:02.862Z,1260.00
2023-02-07T12:44:03.669Z,1248.75
2023-02-07T12:45:02.709Z,1293.75
2023-02-07T12:46:02.867Z,1316.25
2023-02-07T12:47:02.679Z,1310.62
2023-02-07T12:48:02.665Z,1243.12
2023-02-07T12:49:02.687Z,1243.12
2023-02-07T12:50:02.638Z,1265.62
2023-02-07T12:51:02.617Z,1260.00
2023-02-07T12:52:02.609Z,1276.88
2023-02-07T12:53:02.591Z,1293.75
2023-02-07T12:54:02.785Z,1288.12